sensor_id;sensor_type;location;lat;lon;timestamp;P1;durP1;ratioP1;P2;durP2;ratioP2
2123;SDS011;1068;52.460;13.528;2023-07-13T00:01:05;3.83;;;3.30;;
2123;SDS011;1068;52.460;13.528;2023-07-13T00:03:33;3.20;;;2.90;;
2123;SDS011;1068;52.460;13.528;2023-07-13T00:06:00;2.73;;;2.53;;
2123;SDS011;1068;52.460;13.528;2023-07-13T00:08:29;3.80;;;2.30;;
2123;SDS011;1068;52.460;13.528;2023-07-13T00:10:57;2.60;;;2.40;;
2123;SDS011;1068;52.460;13.528;2023-07-13T00:13:24;3.07;;;2.83;;
2123;SDS011;1068;52.460;13.528;2023-07-13T00:15:51;3.10;;;2.33;;
2123;SDS011;1068;52.460;13.528;2023-07-13T00:18:19;2.90;;;2.70;;
2123;SDS011;1068;52.460;13.528;2023-07-13T00:20:47;2.90;;;2.70;;
2123;SDS011;1068;52.460;13.528;2023-07-13T00:23:15;2.90;;;2.27;;
2123;SDS011;1068;52.460;13.528;2023-07-13T00:25:42;2.53;;;2.33;;
2123;SDS011;1068;52.460;13.528;2023-07-13T00:28:09;3.57;;;2.63;;
2123;SDS011;1068;52.460;13.528;2023-07-13T00:30:36;3.10;;;2.70;;
2123;SDS011;1068;52.460;13.528;2023-07-13T00:33:03;4.17;;;3.17;;
2123;SDS011;1068;52.460;13.528;2023-07-13T00:35:30;2.40;;;2.20;;
2123;SDS011;1068;52.460;13.528;2023-07-13T00:37:58;3.63;;;2.80;;
2123;SDS011;1068;52.460;13.528;2023-07-13T00:40:25;3.23;;;2.93;;
2123;SDS011;1068;52.460;13.528;2023-07-13T00:42:52;2.73;;;2.63;;
2123;SDS011;1068;52.460;13.528;2023-07-13T00:48:06;2.83;;;2.53;;
2123;SDS011;1068;52.460;13.528;2023-07-13T00:50:33;2.77;;;2.57;;
2123;SDS011;1068;52.460;13.528;2023-07-13T00:53:01;3.40;;;2.13;;
2123;SDS011;1068;52.460;13.528;2023-07-13T00:55:28;2.30;;;2.10;;
2123;SDS011;1068;52.460;13.528;2023-07-13T00:57:55;2.60;;;2.33;;
2123;SDS011;1068;52.460;13.528;2023-07-13T01:00:23;2.50;;;2.23;;
2123;SDS011;1068;52.460;13.528;2023-07-13T01:02:52;2.40;;;2.30;;
2123;SDS011;1068;52.460;13.528;2023-07-13T01:05:19;3.00;;;2.17;;
2123;SDS011;1068;52.460;13.528;2023-07-13T01:07:47;2.40;;;2.30;;
2123;SDS011;1068;52.460;13.528;2023-07-13T01:10:19;2.30;;;2.10;;
2123;SDS011;1068;52.460;13.528;2023-07-13T01:12:47;5.13;;;2.80;;
2123;SDS011;1068;52.460;13.528;2023-07-13T01:15:33;3.00;;;2.70;;
2123;SDS011;1068;52.460;13.528;2023-07-13T01:18:01;2.53;;;2.33;;
2123;SDS011;1068;52.460;13.528;2023-07-13T01:20:28;3.00;;;2.70;;
2123;SDS011;1068;52.460;13.528;2023-07-13T01:22:56;2.87;;;2.57;;
2123;SDS011;1068;52.460;13.528;2023-07-13T01:25:24;4.37;;;2.53;;
2123;SDS011;1068;52.460;13.528;2023-07-13T01:27:51;3.73;;;2.67;;
2123;SDS011;1068;52.460;13.528;2023-07-13T01:30:18;2.87;;;2.33;;
2123;SDS011;1068;52.460;13.528;2023-07-13T01:32:45;2.50;;;2.30;;
2123;SDS011;1068;52.460;13.528;2023-07-13T01:35:12;2.57;;;2.47;;
2123;SDS011;1068;52.460;13.528;2023-07-13T01:37:39;2.27;;;2.17;;
2123;SDS011;1068;52.460;13.528;2023-07-13T01:40:08;3.87;;;2.60;;
2123;SDS011;1068;52.460;13.528;2023-07-13T01:42:36;3.10;;;2.83;;
2123;SDS011;1068;52.460;13.528;2023-07-13T01:45:03;2.70;;;2.50;;
2123;SDS011;1068;52.460;13.528;2023-07-13T01:47:30;3.13;;;2.90;;
2123;SDS011;1068;52.460;13.528;2023-07-13T01:49:57;3.53;;;2.40;;
2123;SDS011;1068;52.460;13.528;2023-07-13T01:52:24;2.67;;;2.47;;
2123;SDS011;1068;52.460;13.528;2023-07-13T01:54:51;8.67;;;3.10;;
2123;SDS011;1068;52.460;13.528;2023-07-13T01:57:20;5.73;;;2.80;;
2123;SDS011;1068;52.460;13.528;2023-07-13T01:59:47;5.13;;;2.50;;
2123;SDS011;1068;52.460;13.528;2023-07-13T02:02:14;4.90;;;2.47;;
2123;SDS011;1068;52.460;13.528;2023-07-13T02:04:41;3.50;;;2.40;;
2123;SDS011;1068;52.460;13.528;2023-07-13T02:07:08;2.93;;;2.73;;
2123;SDS011;1068;52.460;13.528;2023-07-13T02:09:35;2.90;;;2.70;;
2123;SDS011;1068;52.460;13.528;2023-07-13T02:12:02;2.87;;;2.57;;
2123;SDS011;1068;52.460;13.528;2023-07-13T02:14:30;2.87;;;2.67;;
2123;SDS011;1068;52.460;13.528;2023-07-13T02:16:57;2.33;;;2.13;;
2123;SDS011;1068;52.460;13.528;2023-07-13T02:19:24;2.10;;;2.00;;
2123;SDS011;1068;52.460;13.528;2023-07-13T02:21:51;2.43;;;2.30;;
2123;SDS011;1068;52.460;13.528;2023-07-13T02:24:18;4.13;;;2.30;;
2123;SDS011;1068;52.460;13.528;2023-07-13T02:26:46;4.10;;;2.30;;
2123;SDS011;1068;52.460;13.528;2023-07-13T02:29:13;3.37;;;2.37;;
2123;SDS011;1068;52.460;13.528;2023-07-13T02:31:41;5.47;;;2.60;;
2123;SDS011;1068;52.460;13.528;2023-07-13T02:34:09;5.37;;;3.07;;
2123;SDS011;1068;52.460;13.528;2023-07-13T02:36:36;3.37;;;3.17;;
2123;SDS011;1068;52.460;13.528;2023-07-13T02:39:05;2.60;;;2.40;;
2123;SDS011;1068;52.460;13.528;2023-07-13T02:41:32;3.60;;;3.03;;
2123;SDS011;1068;52.460;13.528;2023-07-13T02:43:59;3.00;;;2.80;;
2123;SDS011;1068;52.460;13.528;2023-07-13T02:46:28;3.80;;;2.40;;
2123;SDS011;1068;52.460;13.528;2023-07-13T02:48:56;4.47;;;2.50;;
2123;SDS011;1068;52.460;13.528;2023-07-13T02:51:23;3.00;;;2.80;;
2123;SDS011;1068;52.460;13.528;2023-07-13T02:53:50;3.50;;;2.33;;
2123;SDS011;1068;52.460;13.528;2023-07-13T02:56:17;3.20;;;2.90;;
2123;SDS011;1068;52.460;13.528;2023-07-13T02:58:44;3.30;;;3.00;;
2123;SDS011;1068;52.460;13.528;2023-07-13T03:01:11;8.07;;;3.30;;
2123;SDS011;1068;52.460;13.528;2023-07-13T03:03:43;6.50;;;3.27;;
2123;SDS011;1068;52.460;13.528;2023-07-13T03:06:12;3.17;;;2.70;;
2123;SDS011;1068;52.460;13.528;2023-07-13T03:08:39;3.67;;;3.37;;
2123;SDS011;1068;52.460;13.528;2023-07-13T03:11:07;3.50;;;3.20;;
2123;SDS011;1068;52.460;13.528;2023-07-13T03:13:35;3.80;;;3.07;;
2123;SDS011;1068;52.460;13.528;2023-07-13T03:16:03;3.47;;;3.17;;
2123;SDS011;1068;52.460;13.528;2023-07-13T03:18:30;3.57;;;2.97;;
2123;SDS011;1068;52.460;13.528;2023-07-13T03:20:57;5.17;;;3.50;;
2123;SDS011;1068;52.460;13.528;2023-07-13T03:23:25;4.70;;;3.50;;
2123;SDS011;1068;52.460;13.528;2023-07-13T03:26:00;3.33;;;3.10;;
2123;SDS011;1068;52.460;13.528;2023-07-13T03:28:27;2.83;;;2.60;;
2123;SDS011;1068;52.460;13.528;2023-07-13T03:30:58;3.30;;;3.10;;
2123;SDS011;1068;52.460;13.528;2023-07-13T03:33:25;3.60;;;3.00;;
2123;SDS011;1068;52.460;13.528;2023-07-13T03:35:52;4.17;;;3.00;;
2123;SDS011;1068;52.460;13.528;2023-07-13T03:38:19;3.70;;;3.40;;
2123;SDS011;1068;52.460;13.528;2023-07-13T03:40:47;3.40;;;3.20;;
2123;SDS011;1068;52.460;13.528;2023-07-13T03:43:14;4.93;;;3.00;;
2123;SDS011;1068;52.460;13.528;2023-07-13T03:45:41;4.60;;;3.07;;
2123;SDS011;1068;52.460;13.528;2023-07-13T03:48:09;5.27;;;3.13;;
2123;SDS011;1068;52.460;13.528;2023-07-13T03:50:36;2.87;;;2.70;;
2123;SDS011;1068;52.460;13.528;2023-07-13T03:53:03;4.13;;;3.30;;
2123;SDS011;1068;52.460;13.528;2023-07-13T03:55:30;8.60;;;3.40;;
2123;SDS011;1068;52.460;13.528;2023-07-13T03:57:59;3.80;;;3.50;;
2123;SDS011;1068;52.460;13.528;2023-07-13T04:00:26;5.13;;;3.53;;
2123;SDS011;1068;52.460;13.528;2023-07-13T04:02:53;3.13;;;2.93;;
2123;SDS011;1068;52.460;13.528;2023-07-13T04:05:20;4.13;;;2.73;;
2123;SDS011;1068;52.460;13.528;2023-07-13T04:07:47;2.83;;;2.40;;
2123;SDS011;1068;52.460;13.528;2023-07-13T04:10:14;3.00;;;2.80;;
2123;SDS011;1068;52.460;13.528;2023-07-13T04:12:41;2.73;;;2.53;;
2123;SDS011;1068;52.460;13.528;2023-07-13T04:15:09;2.50;;;2.40;;
2123;SDS011;1068;52.460;13.528;2023-07-13T04:17:36;4.33;;;2.90;;
2123;SDS011;1068;52.460;13.528;2023-07-13T04:20:03;2.87;;;2.60;;
2123;SDS011;1068;52.460;13.528;2023-07-13T04:22:31;2.83;;;2.63;;
2123;SDS011;1068;52.460;13.528;2023-07-13T04:24:58;3.60;;;3.10;;
2123;SDS011;1068;52.460;13.528;2023-07-13T04:27:24;3.37;;;3.07;;
2123;SDS011;1068;52.460;13.528;2023-07-13T04:29:53;4.47;;;3.57;;
2123;SDS011;1068;52.460;13.528;2023-07-13T04:32:21;3.50;;;3.20;;
2123;SDS011;1068;52.460;13.528;2023-07-13T04:34:48;4.57;;;3.00;;
2123;SDS011;1068;52.460;13.528;2023-07-13T04:37:19;2.63;;;2.43;;
2123;SDS011;1068;52.460;13.528;2023-07-13T04:39:46;3.03;;;2.83;;
2123;SDS011;1068;52.460;13.528;2023-07-13T04:42:13;2.90;;;2.70;;
2123;SDS011;1068;52.460;13.528;2023-07-13T04:44:40;4.30;;;3.07;;
2123;SDS011;1068;52.460;13.528;2023-07-13T04:47:07;5.63;;;2.70;;
2123;SDS011;1068;52.460;13.528;2023-07-13T04:49:35;2.93;;;2.73;;
2123;SDS011;1068;52.460;13.528;2023-07-13T04:52:02;5.00;;;3.20;;
2123;SDS011;1068;52.460;13.528;2023-07-13T04:54:29;3.00;;;2.73;;
2123;SDS011;1068;52.460;13.528;2023-07-13T04:56:56;4.03;;;2.70;;
2123;SDS011;1068;52.460;13.528;2023-07-13T04:59:23;3.83;;;2.60;;
2123;SDS011;1068;52.460;13.528;2023-07-13T05:01:50;3.30;;;2.90;;
2123;SDS011;1068;52.460;13.528;2023-07-13T05:04:17;3.10;;;2.80;;
2123;SDS011;1068;52.460;13.528;2023-07-13T05:06:45;3.00;;;2.43;;
2123;SDS011;1068;52.460;13.528;2023-07-13T05:09:12;3.80;;;2.83;;
2123;SDS011;1068;52.460;13.528;2023-07-13T05:11:39;3.37;;;2.80;;
2123;SDS011;1068;52.460;13.528;2023-07-13T05:14:06;3.43;;;2.90;;
2123;SDS011;1068;52.460;13.528;2023-07-13T05:16:34;3.93;;;3.13;;
2123;SDS011;1068;52.460;13.528;2023-07-13T05:19:01;3.00;;;2.37;;
2123;SDS011;1068;52.460;13.528;2023-07-13T05:21:28;2.80;;;2.40;;
2123;SDS011;1068;52.460;13.528;2023-07-13T05:23:57;4.40;;;2.40;;
2123;SDS011;1068;52.460;13.528;2023-07-13T05:26:24;2.10;;;2.00;;
2123;SDS011;1068;52.460;13.528;2023-07-13T05:28:50;3.30;;;2.67;;
2123;SDS011;1068;52.460;13.528;2023-07-13T05:31:17;2.63;;;2.10;;
2123;SDS011;1068;52.460;13.528;2023-07-13T05:33:44;2.30;;;2.10;;
2123;SDS011;1068;52.460;13.528;2023-07-13T05:36:11;2.20;;;2.00;;
2123;SDS011;1068;52.460;13.528;2023-07-13T05:38:38;2.90;;;2.10;;
2123;SDS011;1068;52.460;13.528;2023-07-13T05:41:07;1.97;;;1.87;;
2123;SDS011;1068;52.460;13.528;2023-07-13T05:43:34;2.40;;;1.70;;
2123;SDS011;1068;52.460;13.528;2023-07-13T05:46:01;4.23;;;2.07;;
2123;SDS011;1068;52.460;13.528;2023-07-13T05:48:27;3.20;;;1.90;;
2123;SDS011;1068;52.460;13.528;2023-07-13T05:50:54;2.47;;;2.10;;
2123;SDS011;1068;52.460;13.528;2023-07-13T05:53:21;1.83;;;1.63;;
2123;SDS011;1068;52.460;13.528;2023-07-13T05:55:48;5.07;;;2.43;;
2123;SDS011;1068;52.460;13.528;2023-07-13T05:58:19;4.03;;;1.90;;
2123;SDS011;1068;52.460;13.528;2023-07-13T06:00:46;3.20;;;2.30;;
2123;SDS011;1068;52.460;13.528;2023-07-13T06:03:13;2.03;;;1.77;;
2123;SDS011;1068;52.460;13.528;2023-07-13T06:05:41;4.03;;;1.83;;
2123;SDS011;1068;52.460;13.528;2023-07-13T06:08:08;2.10;;;1.90;;
2123;SDS011;1068;52.460;13.528;2023-07-13T06:10:35;2.00;;;1.80;;
2123;SDS011;1068;52.460;13.528;2023-07-13T06:13:02;5.40;;;2.10;;
2123;SDS011;1068;52.460;13.528;2023-07-13T06:15:30;2.43;;;2.00;;
2123;SDS011;1068;52.460;13.528;2023-07-13T06:17:57;1.83;;;1.73;;
2123;SDS011;1068;52.460;13.528;2023-07-13T06:20:24;2.57;;;1.83;;
2123;SDS011;1068;52.460;13.528;2023-07-13T06:22:51;4.30;;;1.77;;
2123;SDS011;1068;52.460;13.528;2023-07-13T06:25:18;4.73;;;2.13;;
2123;SDS011;1068;52.460;13.528;2023-07-13T06:27:45;3.93;;;2.00;;
2123;SDS011;1068;52.460;13.528;2023-07-13T06:30:12;2.07;;;1.40;;
2123;SDS011;1068;52.460;13.528;2023-07-13T06:32:40;1.70;;;1.60;;
2123;SDS011;1068;52.460;13.528;2023-07-13T06:35:07;5.17;;;2.53;;
2123;SDS011;1068;52.460;13.528;2023-07-13T06:37:37;2.53;;;1.50;;
2123;SDS011;1068;52.460;13.528;2023-07-13T06:40:06;2.07;;;1.53;;
2123;SDS011;1068;52.460;13.528;2023-07-13T06:42:33;3.50;;;1.70;;
2123;SDS011;1068;52.460;13.528;2023-07-13T06:45:00;3.70;;;1.77;;
2123;SDS011;1068;52.460;13.528;2023-07-13T06:47:27;4.43;;;1.87;;
2123;SDS011;1068;52.460;13.528;2023-07-13T06:49:55;4.30;;;1.57;;
2123;SDS011;1068;52.460;13.528;2023-07-13T06:52:22;2.47;;;1.57;;
2123;SDS011;1068;52.460;13.528;2023-07-13T06:54:49;2.13;;;1.90;;
2123;SDS011;1068;52.460;13.528;2023-07-13T06:57:16;1.57;;;1.30;;
2123;SDS011;1068;52.460;13.528;2023-07-13T06:59:43;2.23;;;1.50;;
2123;SDS011;1068;52.460;13.528;2023-07-13T07:02:10;3.20;;;1.47;;
2123;SDS011;1068;52.460;13.528;2023-07-13T07:04:37;1.90;;;1.63;;
2123;SDS011;1068;52.460;13.528;2023-07-13T07:07:05;3.07;;;1.70;;
2123;SDS011;1068;52.460;13.528;2023-07-13T07:09:32;2.90;;;1.47;;
2123;SDS011;1068;52.460;13.528;2023-07-13T07:11:59;3.30;;;1.20;;
2123;SDS011;1068;52.460;13.528;2023-07-13T07:14:26;1.50;;;1.40;;
2123;SDS011;1068;52.460;13.528;2023-07-13T07:16:53;5.03;;;1.57;;
2123;SDS011;1068;52.460;13.528;2023-07-13T07:19:20;2.17;;;1.50;;
2123;SDS011;1068;52.460;13.528;2023-07-13T07:21:47;2.20;;;1.80;;
2123;SDS011;1068;52.460;13.528;2023-07-13T07:24:15;1.63;;;1.33;;
2123;SDS011;1068;52.460;13.528;2023-07-13T07:26:42;2.13;;;1.30;;
2123;SDS011;1068;52.460;13.528;2023-07-13T07:29:10;2.83;;;1.50;;
2123;SDS011;1068;52.460;13.528;2023-07-13T07:31:37;4.43;;;1.50;;
2123;SDS011;1068;52.460;13.528;2023-07-13T07:34:04;3.10;;;1.63;;
2123;SDS011;1068;52.460;13.528;2023-07-13T07:36:31;2.10;;;1.90;;
2123;SDS011;1068;52.460;13.528;2023-07-13T07:38:58;1.47;;;1.37;;
2123;SDS011;1068;52.460;13.528;2023-07-13T07:41:26;2.13;;;1.93;;
2123;SDS011;1068;52.460;13.528;2023-07-13T07:43:54;3.03;;;1.40;;
2123;SDS011;1068;52.460;13.528;2023-07-13T07:46:20;1.20;;;1.10;;
2123;SDS011;1068;52.460;13.528;2023-07-13T07:48:47;1.93;;;1.40;;
2123;SDS011;1068;52.460;13.528;2023-07-13T07:51:14;3.50;;;1.80;;
2123;SDS011;1068;52.460;13.528;2023-07-13T07:53:41;2.50;;;1.80;;
2123;SDS011;1068;52.460;13.528;2023-07-13T07:56:08;2.70;;;1.77;;
2123;SDS011;1068;52.460;13.528;2023-07-13T07:58:37;2.40;;;1.80;;
2123;SDS011;1068;52.460;13.528;2023-07-13T08:01:05;7.50;;;1.70;;
2123;SDS011;1068;52.460;13.528;2023-07-13T08:03:32;4.10;;;1.80;;
2123;SDS011;1068;52.460;13.528;2023-07-13T08:05:59;3.87;;;1.40;;
2123;SDS011;1068;52.460;13.528;2023-07-13T08:08:26;1.90;;;1.67;;
2123;SDS011;1068;52.460;13.528;2023-07-13T08:10:53;1.47;;;1.37;;
2123;SDS011;1068;52.460;13.528;2023-07-13T08:13:20;2.03;;;1.40;;
2123;SDS011;1068;52.460;13.528;2023-07-13T08:15:48;3.70;;;1.40;;
2123;SDS011;1068;52.460;13.528;2023-07-13T08:18:15;1.60;;;1.10;;
2123;SDS011;1068;52.460;13.528;2023-07-13T08:20:42;3.00;;;1.47;;
2123;SDS011;1068;52.460;13.528;2023-07-13T08:23:09;1.77;;;1.67;;
2123;SDS011;1068;52.460;13.528;2023-07-13T08:25:37;5.73;;;1.60;;
2123;SDS011;1068;52.460;13.528;2023-07-13T08:28:03;3.60;;;1.60;;
2123;SDS011;1068;52.460;13.528;2023-07-13T08:30:30;1.30;;;1.00;;
2123;SDS011;1068;52.460;13.528;2023-07-13T08:32:59;3.13;;;1.20;;
2123;SDS011;1068;52.460;13.528;2023-07-13T08:35:27;2.70;;;1.20;;
2123;SDS011;1068;52.460;13.528;2023-07-13T08:37:54;2.50;;;1.10;;
2123;SDS011;1068;52.460;13.528;2023-07-13T08:40:23;3.03;;;1.30;;
2123;SDS011;1068;52.460;13.528;2023-07-13T08:42:52;4.07;;;1.40;;
2123;SDS011;1068;52.460;13.528;2023-07-13T08:45:21;2.80;;;1.20;;
2123;SDS011;1068;52.460;13.528;2023-07-13T08:47:51;2.87;;;1.30;;
2123;SDS011;1068;52.460;13.528;2023-07-13T08:50:21;3.00;;;1.20;;
2123;SDS011;1068;52.460;13.528;2023-07-13T08:52:51;1.13;;;1.03;;
2123;SDS011;1068;52.460;13.528;2023-07-13T08:55:20;2.60;;;1.23;;
2123;SDS011;1068;52.460;13.528;2023-07-13T08:57:48;2.50;;;1.50;;
2123;SDS011;1068;52.460;13.528;2023-07-13T09:00:17;2.60;;;1.13;;
2123;SDS011;1068;52.460;13.528;2023-07-13T09:02:45;1.67;;;1.30;;
2123;SDS011;1068;52.460;13.528;2023-07-13T09:05:14;4.93;;;1.40;;
2123;SDS011;1068;52.460;13.528;2023-07-13T09:07:56;5.20;;;1.40;;
2123;SDS011;1068;52.460;13.528;2023-07-13T09:10:26;1.30;;;1.20;;
2123;SDS011;1068;52.460;13.528;2023-07-13T09:12:59;5.03;;;1.40;;
2123;SDS011;1068;52.460;13.528;2023-07-13T09:15:29;1.27;;;1.17;;
2123;SDS011;1068;52.460;13.528;2023-07-13T09:17:58;9.70;;;1.83;;
2123;SDS011;1068;52.460;13.528;2023-07-13T09:20:28;9.97;;;2.90;;
2123;SDS011;1068;52.460;13.528;2023-07-13T09:22:58;1.53;;;1.30;;
2123;SDS011;1068;52.460;13.528;2023-07-13T09:25:27;1.43;;;1.33;;
2123;SDS011;1068;52.460;13.528;2023-07-13T09:27:56;2.63;;;1.33;;
2123;SDS011;1068;52.460;13.528;2023-07-13T09:30:29;2.30;;;1.20;;
2123;SDS011;1068;52.460;13.528;2023-07-13T09:32:57;1.67;;;1.47;;
2123;SDS011;1068;52.460;13.528;2023-07-13T09:35:26;2.33;;;1.67;;
2123;SDS011;1068;52.460;13.528;2023-07-13T09:37:58;1.50;;;1.40;;
2123;SDS011;1068;52.460;13.528;2023-07-13T09:40:28;4.07;;;1.30;;
2123;SDS011;1068;52.460;13.528;2023-07-13T09:42:57;1.80;;;1.70;;
2123;SDS011;1068;52.460;13.528;2023-07-13T09:45:28;3.87;;;1.90;;
2123;SDS011;1068;52.460;13.528;2023-07-13T09:48:04;3.90;;;1.27;;
2123;SDS011;1068;52.460;13.528;2023-07-13T09:50:31;7.13;;;1.80;;
2123;SDS011;1068;52.460;13.528;2023-07-13T09:53:00;2.50;;;1.70;;
2123;SDS011;1068;52.460;13.528;2023-07-13T09:55:28;1.77;;;1.43;;
2123;SDS011;1068;52.460;13.528;2023-07-13T09:57:56;2.37;;;1.63;;
2123;SDS011;1068;52.460;13.528;2023-07-13T10:00:23;2.17;;;1.37;;
2123;SDS011;1068;52.460;13.528;2023-07-13T10:05:39;4.10;;;2.20;;
2123;SDS011;1068;52.460;13.528;2023-07-13T10:08:16;3.03;;;1.87;;
2123;SDS011;1068;52.460;13.528;2023-07-13T10:10:44;3.07;;;1.50;;
2123;SDS011;1068;52.460;13.528;2023-07-13T10:13:28;2.03;;;1.40;;
2123;SDS011;1068;52.460;13.528;2023-07-13T10:15:56;2.67;;;1.30;;
2123;SDS011;1068;52.460;13.528;2023-07-13T10:18:24;1.50;;;1.40;;
2123;SDS011;1068;52.460;13.528;2023-07-13T10:20:53;2.23;;;1.47;;
2123;SDS011;1068;52.460;13.528;2023-07-13T10:23:23;3.40;;;2.20;;
2123;SDS011;1068;52.460;13.528;2023-07-13T10:25:52;3.50;;;2.00;;
2123;SDS011;1068;52.460;13.528;2023-07-13T10:28:22;3.07;;;1.80;;
2123;SDS011;1068;52.460;13.528;2023-07-13T10:30:50;2.00;;;1.40;;
2123;SDS011;1068;52.460;13.528;2023-07-13T10:33:19;3.40;;;1.90;;
2123;SDS011;1068;52.460;13.528;2023-07-13T10:35:49;2.37;;;1.60;;
2123;SDS011;1068;52.460;13.528;2023-07-13T10:38:20;1.70;;;1.50;;
2123;SDS011;1068;52.460;13.528;2023-07-13T10:40:52;1.93;;;1.50;;
2123;SDS011;1068;52.460;13.528;2023-07-13T10:43:22;1.73;;;1.53;;
2123;SDS011;1068;52.460;13.528;2023-07-13T10:45:51;5.37;;;1.60;;
2123;SDS011;1068;52.460;13.528;2023-07-13T10:48:19;2.73;;;1.67;;
2123;SDS011;1068;52.460;13.528;2023-07-13T10:50:49;1.50;;;1.40;;
2123;SDS011;1068;52.460;13.528;2023-07-13T10:53:18;1.60;;;1.43;;
2123;SDS011;1068;52.460;13.528;2023-07-13T10:55:56;2.80;;;2.60;;
2123;SDS011;1068;52.460;13.528;2023-07-13T10:58:28;2.03;;;1.90;;
2123;SDS011;1068;52.460;13.528;2023-07-13T11:00:56;2.70;;;2.07;;
2123;SDS011;1068;52.460;13.528;2023-07-13T11:03:25;1.63;;;1.53;;
2123;SDS011;1068;52.460;13.528;2023-07-13T11:06:03;2.90;;;1.90;;
2123;SDS011;1068;52.460;13.528;2023-07-13T11:08:34;2.60;;;2.50;;
2123;SDS011;1068;52.460;13.528;2023-07-13T11:11:04;4.90;;;2.43;;
2123;SDS011;1068;52.460;13.528;2023-07-13T11:13:57;2.43;;;2.23;;
2123;SDS011;1068;52.460;13.528;2023-07-13T11:16:34;2.70;;;2.50;;
2123;SDS011;1068;52.460;13.528;2023-07-13T11:19:23;2.47;;;2.10;;
2123;SDS011;1068;52.460;13.528;2023-07-13T11:22:10;3.90;;;2.30;;
2123;SDS011;1068;52.460;13.528;2023-07-13T11:24:48;4.47;;;1.60;;
2123;SDS011;1068;52.460;13.528;2023-07-13T11:27:33;2.80;;;1.97;;
2123;SDS011;1068;52.460;13.528;2023-07-13T11:32:49;3.33;;;2.50;;
2123;SDS011;1068;52.460;13.528;2023-07-13T11:35:18;4.70;;;1.97;;
2123;SDS011;1068;52.460;13.528;2023-07-13T11:37:48;1.67;;;1.57;;
2123;SDS011;1068;52.460;13.528;2023-07-13T11:40:14;2.17;;;1.50;;
2123;SDS011;1068;52.460;13.528;2023-07-13T11:42:43;4.17;;;2.40;;
2123;SDS011;1068;52.460;13.528;2023-07-13T11:45:18;1.57;;;1.47;;
2123;SDS011;1068;52.460;13.528;2023-07-13T11:47:48;2.10;;;1.73;;
2123;SDS011;1068;52.460;13.528;2023-07-13T11:50:19;4.00;;;1.87;;
2123;SDS011;1068;52.460;13.528;2023-07-13T11:52:48;3.00;;;1.80;;
2123;SDS011;1068;52.460;13.528;2023-07-13T11:55:19;2.53;;;2.03;;
2123;SDS011;1068;52.460;13.528;2023-07-13T11:57:49;2.00;;;1.90;;
2123;SDS011;1068;52.460;13.528;2023-07-13T12:00:17;2.20;;;2.00;;
2123;SDS011;1068;52.460;13.528;2023-07-13T12:02:48;2.40;;;2.20;;
2123;SDS011;1068;52.460;13.528;2023-07-13T12:05:17;2.30;;;2.10;;
2123;SDS011;1068;52.460;13.528;2023-07-13T12:07:45;2.53;;;2.00;;
2123;SDS011;1068;52.460;13.528;2023-07-13T12:10:17;2.27;;;1.97;;
2123;SDS011;1068;52.460;13.528;2023-07-13T12:12:51;3.67;;;1.50;;
2123;SDS011;1068;52.460;13.528;2023-07-13T12:15:18;2.67;;;1.70;;
2123;SDS011;1068;52.460;13.528;2023-07-13T12:17:46;2.87;;;1.80;;
2123;SDS011;1068;52.460;13.528;2023-07-13T12:20:17;2.10;;;1.90;;
2123;SDS011;1068;52.460;13.528;2023-07-13T12:22:46;5.10;;;2.10;;
2123;SDS011;1068;52.460;13.528;2023-07-13T12:25:15;2.07;;;1.87;;
2123;SDS011;1068;52.460;13.528;2023-07-13T12:27:42;3.77;;;1.87;;
2123;SDS011;1068;52.460;13.528;2023-07-13T12:33:05;1.80;;;1.50;;
2123;SDS011;1068;52.460;13.528;2023-07-13T12:35:39;2.17;;;1.60;;
2123;SDS011;1068;52.460;13.528;2023-07-13T12:38:07;2.10;;;2.00;;
2123;SDS011;1068;52.460;13.528;2023-07-13T12:40:35;2.93;;;2.10;;
2123;SDS011;1068;52.460;13.528;2023-07-13T12:43:02;2.60;;;1.60;;
2123;SDS011;1068;52.460;13.528;2023-07-13T12:45:31;3.10;;;1.70;;
2123;SDS011;1068;52.460;13.528;2023-07-13T12:47:59;2.27;;;1.97;;
2123;SDS011;1068;52.460;13.528;2023-07-13T12:50:34;2.20;;;2.03;;
2123;SDS011;1068;52.460;13.528;2023-07-13T12:53:04;3.83;;;1.77;;
2123;SDS011;1068;52.460;13.528;2023-07-13T12:55:39;1.97;;;1.57;;
2123;SDS011;1068;52.460;13.528;2023-07-13T12:58:09;2.13;;;1.50;;
2123;SDS011;1068;52.460;13.528;2023-07-13T13:00:40;2.93;;;1.60;;
2123;SDS011;1068;52.460;13.528;2023-07-13T13:03:11;1.93;;;1.50;;
2123;SDS011;1068;52.460;13.528;2023-07-13T13:05:43;2.27;;;1.63;;
2123;SDS011;1068;52.460;13.528;2023-07-13T13:08:11;9.70;;;2.10;;
2123;SDS011;1068;52.460;13.528;2023-07-13T13:10:38;1.70;;;1.60;;
2123;SDS011;1068;52.460;13.528;2023-07-13T13:13:06;3.10;;;2.07;;
2123;SDS011;1068;52.460;13.528;2023-07-13T13:15:35;3.63;;;1.83;;
2123;SDS011;1068;52.460;13.528;2023-07-13T13:18:02;2.50;;;1.60;;
2123;SDS011;1068;52.460;13.528;2023-07-13T13:20:30;2.40;;;1.30;;
2123;SDS011;1068;52.460;13.528;2023-07-13T13:22:58;2.50;;;1.67;;
2123;SDS011;1068;52.460;13.528;2023-07-13T13:25:25;4.37;;;1.70;;
2123;SDS011;1068;52.460;13.528;2023-07-13T13:27:52;6.20;;;1.93;;
2123;SDS011;1068;52.460;13.528;2023-07-13T13:30:19;7.10;;;1.87;;
2123;SDS011;1068;52.460;13.528;2023-07-13T13:32:47;3.97;;;1.60;;
2123;SDS011;1068;52.460;13.528;2023-07-13T13:35:15;2.10;;;1.30;;
2123;SDS011;1068;52.460;13.528;2023-07-13T13:37:42;5.00;;;1.60;;
2123;SDS011;1068;52.460;13.528;2023-07-13T13:40:17;2.80;;;1.47;;
2123;SDS011;1068;52.460;13.528;2023-07-13T13:42:45;1.93;;;1.33;;
2123;SDS011;1068;52.460;13.528;2023-07-13T13:45:12;4.80;;;1.50;;
2123;SDS011;1068;52.460;13.528;2023-07-13T13:47:41;2.20;;;1.40;;
2123;SDS011;1068;52.460;13.528;2023-07-13T13:50:11;3.17;;;1.37;;
2123;SDS011;1068;52.460;13.528;2023-07-13T13:52:39;1.37;;;1.27;;
2123;SDS011;1068;52.460;13.528;2023-07-13T13:55:11;2.27;;;1.20;;
2123;SDS011;1068;52.460;13.528;2023-07-13T13:57:39;2.10;;;1.57;;
2123;SDS011;1068;52.460;13.528;2023-07-13T14:00:07;1.70;;;1.40;;
2123;SDS011;1068;52.460;13.528;2023-07-13T14:02:36;3.23;;;2.00;;
2123;SDS011;1068;52.460;13.528;2023-07-13T14:05:05;3.30;;;1.20;;
2123;SDS011;1068;52.460;13.528;2023-07-13T14:07:33;2.30;;;1.43;;
2123;SDS011;1068;52.460;13.528;2023-07-13T14:10:00;1.80;;;1.10;;
2123;SDS011;1068;52.460;13.528;2023-07-13T14:12:27;4.00;;;1.20;;
2123;SDS011;1068;52.460;13.528;2023-07-13T14:14:56;2.33;;;1.20;;
2123;SDS011;1068;52.460;13.528;2023-07-13T14:17:24;2.53;;;1.70;;
2123;SDS011;1068;52.460;13.528;2023-07-13T14:19:51;3.23;;;1.57;;
2123;SDS011;1068;52.460;13.528;2023-07-13T14:22:22;1.53;;;1.20;;
2123;SDS011;1068;52.460;13.528;2023-07-13T14:24:48;1.40;;;1.10;;
2123;SDS011;1068;52.460;13.528;2023-07-13T14:27:15;4.40;;;1.20;;
2123;SDS011;1068;52.460;13.528;2023-07-13T14:29:42;3.33;;;1.20;;
2123;SDS011;1068;52.460;13.528;2023-07-13T14:32:11;4.73;;;1.47;;
2123;SDS011;1068;52.460;13.528;2023-07-13T14:34:38;1.87;;;1.47;;
2123;SDS011;1068;52.460;13.528;2023-07-13T14:37:05;1.50;;;1.00;;
2123;SDS011;1068;52.460;13.528;2023-07-13T14:39:38;2.03;;;1.43;;
2123;SDS011;1068;52.460;13.528;2023-07-13T14:42:05;3.47;;;1.67;;
2123;SDS011;1068;52.460;13.528;2023-07-13T14:44:32;2.83;;;1.07;;
2123;SDS011;1068;52.460;13.528;2023-07-13T14:47:00;1.47;;;1.10;;
2123;SDS011;1068;52.460;13.528;2023-07-13T14:49:31;5.37;;;1.43;;
2123;SDS011;1068;52.460;13.528;2023-07-13T14:51:59;3.47;;;1.27;;
2123;SDS011;1068;52.460;13.528;2023-07-13T14:54:27;2.30;;;1.20;;
2123;SDS011;1068;52.460;13.528;2023-07-13T14:56:54;1.40;;;1.00;;
2123;SDS011;1068;52.460;13.528;2023-07-13T14:59:21;1.57;;;1.20;;
2123;SDS011;1068;52.460;13.528;2023-07-13T15:01:49;3.70;;;1.70;;
2123;SDS011;1068;52.460;13.528;2023-07-13T15:04:16;2.07;;;1.20;;
2123;SDS011;1068;52.460;13.528;2023-07-13T15:06:55;1.40;;;1.27;;
2123;SDS011;1068;52.460;13.528;2023-07-13T15:09:24;3.33;;;1.00;;
2123;SDS011;1068;52.460;13.528;2023-07-13T15:11:51;1.67;;;1.20;;
2123;SDS011;1068;52.460;13.528;2023-07-13T15:14:18;3.63;;;1.17;;
2123;SDS011;1068;52.460;13.528;2023-07-13T15:16:46;1.17;;;1.07;;
2123;SDS011;1068;52.460;13.528;2023-07-13T15:19:13;2.90;;;1.07;;